Ouarzazate, Morocco

5:17 PM WEST on August 29, 2014 (GMT +0100)
Ouarzazate | Change Station
CLOSE
Current Station
Airport
Location: Ouarzazate,
Elevation: 3737 ft
Nearby Weather Stations

Elev 3737 ft 30.94 °N, 6.91 °W | Updated 17 minutes ago

Thunderstorm
Thunderstorm
90 °F
Feels Like 90 °F
N
14
Wind Variable Wind from SW
Gusts 26 mph

Today
High -- | Low -- °F
--% Chance of Precip.
Yesterday
High -- | Low -- °F
Precip. -- in
7:01 AM 7:54 PM
Waxing Crescent, 15% visible
Pressure 30.12 in
Visibility 6.2 miles
Clouds Mostly Cloudy 4000 ft
Few 5000 ft
Dew Point 37 °F
Humidity 16%
Rainfall 0.00 in
Snow Depth Not available.
UV 5 out of 12
Pollen Not available.
Air Quality Not available.
Flu Activity Not available.
METAR GMMZ 291600Z 23012G23KT 9999 TS BKN040 FEW050CB 32/03 Q1020

More Conditions Fewer Conditions

Pressure 30.12 in
Visibility 6.2 miles
Clouds Mostly Cloudy 4000 ft
Few 5000 ft
Dew Point 37 °F
Humidity 16%
Rainfall 0.00 in
Snow Depth Not available.
UV 5 out of 12
Pollen Not available.
Air Quality Not available.
Flu Activity Not available.
METAR GMMZ 291600Z 23012G23KT 9999 TS BKN040 FEW050CB 32/03 Q1020

More Conditions Fewer Conditions

10-Day Weather Forecast

Almanac

Astronomy

Aug. 29, 2014 Rise Set
Actual Time 7:01 AM WEST 7:54 PM WEST
Civil Twilight 6:37 AM WEST 8:19 PM WEST
Nautical Twilight 6:07 AM WEST 8:48 PM WEST
Astronomical Twilight 5:38 AM WEST 9:18 PM WEST
Moon 10:21 AM WEST 10:02 PM WEST
Length of Visible Light 13h 42m
Length of Day
12h 52m
Tomorrow will be 1m 46s shorter.
Waxing Crescent, 15% of the Moon is Illuminated
Today
Waxing Crescent
Sep 2
First Quarter
Sep 8
Full
Sep 15
Last Quarter
Sep 24
New

Today's Extremes

Country Highs Country Lows

Community

WunderPhotos

Upload Photos

1,748,275 photos uploaded!

Nearby

Snow Depth

Not available.

Earthquake Activity

City Distance Mag. Time & Date
No recent earthquake activity has been reported nearby.
Minimum magnitude displayed is 2.5.

Coastal Water Temperatures

Place Temperature
No Stations Reporting

Nearby Weather Stations